sensor_id;sensor_type;location;lat;lon;timestamp;pressure;altitude;pressure_sealevel;temperature;humidity
25722;BME280;13578;53.450;15.496;2023-01-15T00:00:01;97825.03;;;5.97;100.00
25722;BME280;13578;53.450;15.496;2023-01-15T00:03:01;97812.44;;;6.14;100.00
25722;BME280;13578;53.450;15.496;2023-01-15T00:06:02;97804.59;;;6.11;100.00
25722;BME280;13578;53.450;15.496;2023-01-15T00:09:04;97813.09;;;6.08;100.00
25722;BME280;13578;53.450;15.496;2023-01-15T00:12:04;97802.91;;;6.10;100.00
25722;BME280;13578;53.450;15.496;2023-01-15T00:15:05;97796.22;;;6.04;100.00
25722;BME280;13578;53.450;15.496;2023-01-15T00:18:06;97792.09;;;6.00;100.00
25722;BME280;13578;53.450;15.496;2023-01-15T00:21:09;97794.88;;;6.08;100.00
25722;BME280;13578;53.450;15.496;2023-01-15T00:24:10;97794.41;;;6.13;100.00
25722;BME280;13578;53.450;15.496;2023-01-15T00:27:30;97768.38;;;6.18;100.00
25722;BME280;13578;53.450;15.496;2023-01-15T00:30:40;97782.41;;;6.24;100.00
25722;BME280;13578;53.450;15.496;2023-01-15T00:33:41;97748.66;;;6.16;100.00
25722;BME280;13578;53.450;15.496;2023-01-15T00:36:42;97763.66;;;6.20;100.00
25722;BME280;13578;53.450;15.496;2023-01-15T00:39:43;97757.84;;;6.15;100.00
25722;BME280;13578;53.450;15.496;2023-01-15T00:42:44;97756.72;;;6.26;100.00
25722;BME280;13578;53.450;15.496;2023-01-15T00:45:45;97772.00;;;6.19;100.00
25722;BME280;13578;53.450;15.496;2023-01-15T00:48:45;97767.06;;;6.23;100.00
25722;BME280;13578;53.450;15.496;2023-01-15T00:51:46;97760.94;;;6.20;100.00
25722;BME280;13578;53.450;15.496;2023-01-15T00:54:49;97739.84;;;6.23;100.00
25722;BME280;13578;53.450;15.496;2023-01-15T00:57:49;97740.56;;;6.33;100.00
25722;BME280;13578;53.450;15.496;2023-01-15T01:00:57;97734.97;;;6.34;100.00
25722;BME280;13578;53.450;15.496;2023-01-15T01:04:00;97704.78;;;6.28;100.00
25722;BME280;13578;53.450;15.496;2023-01-15T01:07:00;97724.88;;;6.27;100.00
25722;BME280;13578;53.450;15.496;2023-01-15T01:10:01;97729.34;;;6.36;100.00
25722;BME280;13578;53.450;15.496;2023-01-15T01:13:02;97715.38;;;6.31;100.00
25722;BME280;13578;53.450;15.496;2023-01-15T01:16:03;97723.56;;;6.39;100.00
25722;BME280;13578;53.450;15.496;2023-01-15T01:19:07;97730.91;;;6.39;100.00
25722;BME280;13578;53.450;15.496;2023-01-15T01:22:08;97703.81;;;6.37;100.00
25722;BME280;13578;53.450;15.496;2023-01-15T01:25:09;97706.25;;;6.48;100.00
25722;BME280;13578;53.450;15.496;2023-01-15T01:28:10;97705.00;;;6.43;100.00
25722;BME280;13578;53.450;15.496;2023-01-15T01:31:10;97715.44;;;6.47;100.00
25722;BME280;13578;53.450;15.496;2023-01-15T01:34:12;97709.63;;;6.42;100.00
25722;BME280;13578;53.450;15.496;2023-01-15T01:37:13;97695.84;;;6.44;100.00
25722;BME280;13578;53.450;15.496;2023-01-15T01:40:14;97704.72;;;6.46;100.00
25722;BME280;13578;53.450;15.496;2023-01-15T01:43:21;97694.69;;;6.55;100.00
25722;BME280;13578;53.450;15.496;2023-01-15T01:46:22;97688.91;;;6.58;100.00
25722;BME280;13578;53.450;15.496;2023-01-15T01:49:23;97701.19;;;6.62;100.00
25722;BME280;13578;53.450;15.496;2023-01-15T01:52:28;97696.06;;;6.59;100.00
25722;BME280;13578;53.450;15.496;2023-01-15T01:55:30;97684.47;;;6.57;100.00
25722;BME280;13578;53.450;15.496;2023-01-15T01:58:33;97691.50;;;6.67;100.00
25722;BME280;13578;53.450;15.496;2023-01-15T02:01:34;97670.38;;;6.61;100.00
25722;BME280;13578;53.450;15.496;2023-01-15T02:04:35;97682.50;;;6.67;100.00
25722;BME280;13578;53.450;15.496;2023-01-15T02:07:36;97666.78;;;6.69;100.00
25722;BME280;13578;53.450;15.496;2023-01-15T02:10:37;97657.22;;;6.57;100.00
25722;BME280;13578;53.450;15.496;2023-01-15T02:13:52;97670.88;;;6.65;100.00
25722;BME280;13578;53.450;15.496;2023-01-15T02:17:19;97673.16;;;6.78;100.00
25722;BME280;13578;53.450;15.496;2023-01-15T02:27:21;97697.34;;;6.81;100.00
25722;BME280;13578;53.450;15.496;2023-01-15T02:30:33;97690.69;;;6.75;100.00
25722;BME280;13578;53.450;15.496;2023-01-15T02:33:38;97680.31;;;6.79;100.00
25722;BME280;13578;53.450;15.496;2023-01-15T02:36:43;97690.19;;;6.88;100.00
25722;BME280;13578;53.450;15.496;2023-01-15T02:39:46;97673.47;;;6.75;100.00
25722;BME280;13578;53.450;15.496;2023-01-15T02:42:49;97666.19;;;6.92;100.00
25722;BME280;13578;53.450;15.496;2023-01-15T02:45:53;97660.72;;;6.92;100.00
25722;BME280;13578;53.450;15.496;2023-01-15T02:48:57;97650.84;;;6.91;100.00
25722;BME280;13578;53.450;15.496;2023-01-15T02:52:02;97661.59;;;6.92;100.00
25722;BME280;13578;53.450;15.496;2023-01-15T02:55:16;97665.50;;;6.98;100.00
25722;BME280;13578;53.450;15.496;2023-01-15T02:58:29;97652.41;;;6.93;100.00
25722;BME280;13578;53.450;15.496;2023-01-15T03:01:38;97676.78;;;7.03;100.00
25722;BME280;13578;53.450;15.496;2023-01-15T03:07:57;97667.56;;;6.96;100.00
25722;BME280;13578;53.450;15.496;2023-01-15T03:11:10;97670.66;;;7.09;100.00
25722;BME280;13578;53.450;15.496;2023-01-15T03:14:19;97646.09;;;7.09;100.00
25722;BME280;13578;53.450;15.496;2023-01-15T03:17:24;97650.69;;;7.17;100.00
25722;BME280;13578;53.450;15.496;2023-01-15T03:20:30;97666.56;;;7.13;100.00
25722;BME280;13578;53.450;15.496;2023-01-15T03:23:35;97658.75;;;7.19;100.00
25722;BME280;13578;53.450;15.496;2023-01-15T03:26:37;97649.53;;;7.11;100.00
25722;BME280;13578;53.450;15.496;2023-01-15T03:29:41;97639.13;;;7.15;100.00
25722;BME280;13578;53.450;15.496;2023-01-15T03:32:44;97636.38;;;7.23;100.00
25722;BME280;13578;53.450;15.496;2023-01-15T03:35:54;97626.31;;;7.15;100.00
25722;BME280;13578;53.450;15.496;2023-01-15T03:38:57;97641.16;;;7.21;100.00
25722;BME280;13578;53.450;15.496;2023-01-15T03:45:32;97651.91;;;7.23;100.00
25722;BME280;13578;53.450;15.496;2023-01-15T03:48:40;97654.63;;;7.23;100.00
25722;BME280;13578;53.450;15.496;2023-01-15T03:55:11;97668.09;;;7.24;100.00
25722;BME280;13578;53.450;15.496;2023-01-15T03:58:24;97668.78;;;7.26;100.00
25722;BME280;13578;53.450;15.496;2023-01-15T04:01:31;97640.66;;;7.26;100.00
25722;BME280;13578;53.450;15.496;2023-01-15T04:04:34;97645.09;;;7.27;100.00
25722;BME280;13578;53.450;15.496;2023-01-15T04:07:35;97638.78;;;7.26;100.00
25722;BME280;13578;53.450;15.496;2023-01-15T04:10:36;97637.25;;;7.15;100.00
25722;BME280;13578;53.450;15.496;2023-01-15T04:13:37;97625.50;;;7.15;100.00
25722;BME280;13578;53.450;15.496;2023-01-15T04:16:37;97628.72;;;7.19;100.00
25722;BME280;13578;53.450;15.496;2023-01-15T04:19:38;97626.00;;;7.10;100.00
25722;BME280;13578;53.450;15.496;2023-01-15T04:22:39;97630.59;;;7.26;100.00
25722;BME280;13578;53.450;15.496;2023-01-15T04:25:40;97629.06;;;7.24;100.00
25722;BME280;13578;53.450;15.496;2023-01-15T04:28:41;97621.91;;;7.31;100.00
25722;BME280;13578;53.450;15.496;2023-01-15T04:31:42;97622.41;;;7.26;100.00
25722;BME280;13578;53.450;15.496;2023-01-15T04:34:43;97630.41;;;7.20;100.00
25722;BME280;13578;53.450;15.496;2023-01-15T04:37:43;97633.66;;;7.23;100.00
25722;BME280;13578;53.450;15.496;2023-01-15T04:40:44;97638.59;;;7.20;100.00
25722;BME280;13578;53.450;15.496;2023-01-15T04:44:04;97635.22;;;7.26;100.00
25722;BME280;13578;53.450;15.496;2023-01-15T04:47:07;97634.53;;;7.24;100.00
25722;BME280;13578;53.450;15.496;2023-01-15T04:50:08;97624.28;;;7.18;100.00
25722;BME280;13578;53.450;15.496;2023-01-15T04:53:10;97606.72;;;7.20;100.00
25722;BME280;13578;53.450;15.496;2023-01-15T04:56:10;97607.94;;;7.18;100.00
25722;BME280;13578;53.450;15.496;2023-01-15T04:59:12;97607.94;;;7.18;100.00
25722;BME280;13578;53.450;15.496;2023-01-15T05:02:13;97615.94;;;7.19;100.00
25722;BME280;13578;53.450;15.496;2023-01-15T05:05:14;97614.59;;;7.15;100.00
25722;BME280;13578;53.450;15.496;2023-01-15T05:08:15;97617.47;;;7.13;100.00
25722;BME280;13578;53.450;15.496;2023-01-15T05:11:16;97589.84;;;7.17;100.00
25722;BME280;13578;53.450;15.496;2023-01-15T05:14:16;97606.41;;;7.15;100.00
25722;BME280;13578;53.450;15.496;2023-01-15T05:17:17;97613.72;;;7.14;100.00
25722;BME280;13578;53.450;15.496;2023-01-15T05:20:18;97613.00;;;7.12;100.00
25722;BME280;13578;53.450;15.496;2023-01-15T05:23:18;97625.50;;;7.15;100.00
25722;BME280;13578;53.450;15.496;2023-01-15T05:26:20;97621.91;;;7.14;100.00
25722;BME280;13578;53.450;15.496;2023-01-15T05:29:21;97663.81;;;7.05;100.00
25722;BME280;13578;53.450;15.496;2023-01-15T05:32:22;97706.16;;;6.32;100.00
25722;BME280;13578;53.450;15.496;2023-01-15T05:35:22;97708.63;;;5.91;100.00
25722;BME280;13578;53.450;15.496;2023-01-15T05:38:23;97724.38;;;5.61;100.00
25722;BME280;13578;53.450;15.496;2023-01-15T05:41:24;97744.06;;;5.54;100.00
25722;BME280;13578;53.450;15.496;2023-01-15T05:44:43;97741.53;;;5.35;100.00
25722;BME280;13578;53.450;15.496;2023-01-15T05:47:44;97751.44;;;5.44;100.00
25722;BME280;13578;53.450;15.496;2023-01-15T05:50:44;97754.41;;;5.33;100.00
25722;BME280;13578;53.450;15.496;2023-01-15T05:53:45;97756.34;;;5.22;100.00
25722;BME280;13578;53.450;15.496;2023-01-15T05:56:46;97764.41;;;5.14;100.00
25722;BME280;13578;53.450;15.496;2023-01-15T05:59:48;97762.84;;;5.12;100.00
25722;BME280;13578;53.450;15.496;2023-01-15T06:02:49;97758.03;;;5.05;100.00
25722;BME280;13578;53.450;15.496;2023-01-15T06:05:54;97738.00;;;5.06;100.00
25722;BME280;13578;53.450;15.496;2023-01-15T06:08:55;97752.03;;;5.02;100.00
25722;BME280;13578;53.450;15.496;2023-01-15T06:11:56;97761.06;;;5.02;100.00
25722;BME280;13578;53.450;15.496;2023-01-15T06:14:57;97745.66;;;4.93;100.00
25722;BME280;13578;53.450;15.496;2023-01-15T06:17:57;97741.78;;;4.96;100.00
25722;BME280;13578;53.450;15.496;2023-01-15T06:21:03;97758.56;;;4.91;100.00
25722;BME280;13578;53.450;15.496;2023-01-15T06:24:04;97763.75;;;4.84;100.00
25722;BME280;13578;53.450;15.496;2023-01-15T06:27:05;97756.94;;;4.70;100.00
25722;BME280;13578;53.450;15.496;2023-01-15T06:30:06;97764.25;;;4.70;100.00
25722;BME280;13578;53.450;15.496;2023-01-15T06:33:07;97764.84;;;4.64;100.00
25722;BME280;13578;53.450;15.496;2023-01-15T06:36:09;97764.06;;;4.53;100.00
25722;BME280;13578;53.450;15.496;2023-01-15T06:39:10;97745.53;;;4.39;100.00
25722;BME280;13578;53.450;15.496;2023-01-15T06:42:11;97727.63;;;4.46;100.00
25722;BME280;13578;53.450;15.496;2023-01-15T06:45:36;97750.34;;;4.45;100.00
25722;BME280;13578;53.450;15.496;2023-01-15T06:48:56;97741.22;;;4.46;100.00
25722;BME280;13578;53.450;15.496;2023-01-15T06:51:56;97749.25;;;4.38;100.00
25722;BME280;13578;53.450;15.496;2023-01-15T06:54:57;97762.97;;;4.36;100.00
25722;BME280;13578;53.450;15.496;2023-01-15T06:57:58;97783.13;;;4.34;100.00
25722;BME280;13578;53.450;15.496;2023-01-15T07:00:58;97780.31;;;4.25;100.00
25722;BME280;13578;53.450;15.496;2023-01-15T07:03:59;97776.84;;;4.33;100.00
25722;BME280;13578;53.450;15.496;2023-01-15T07:07:00;97778.25;;;4.37;100.00
25722;BME280;13578;53.450;15.496;2023-01-15T07:10:00;97763.81;;;4.37;100.00
25722;BME280;13578;53.450;15.496;2023-01-15T07:13:01;97766.41;;;4.28;100.00
25722;BME280;13578;53.450;15.496;2023-01-15T07:16:03;97788.69;;;4.32;100.00
25722;BME280;13578;53.450;15.496;2023-01-15T07:19:04;97794.13;;;4.32;100.00
25722;BME280;13578;53.450;15.496;2023-01-15T07:22:06;97805.88;;;4.33;100.00
25722;BME280;13578;53.450;15.496;2023-01-15T07:25:08;97797.16;;;4.29;100.00
25722;BME280;13578;53.450;15.496;2023-01-15T07:28:08;97816.25;;;4.37;100.00
25722;BME280;13578;53.450;15.496;2023-01-15T07:31:09;97807.00;;;4.30;100.00
25722;BME280;13578;53.450;15.496;2023-01-15T07:34:10;97837.34;;;4.25;100.00
25722;BME280;13578;53.450;15.496;2023-01-15T07:37:10;97843.28;;;4.39;100.00
25722;BME280;13578;53.450;15.496;2023-01-15T07:40:11;97835.03;;;4.31;100.00
25722;BME280;13578;53.450;15.496;2023-01-15T07:43:12;97845.28;;;4.37;100.00
25722;BME280;13578;53.450;15.496;2023-01-15T07:46:31;97848.19;;;4.25;100.00
25722;BME280;13578;53.450;15.496;2023-01-15T07:49:51;97840.63;;;4.09;100.00
25722;BME280;13578;53.450;15.496;2023-01-15T07:52:53;97856.78;;;4.11;100.00
25722;BME280;13578;53.450;15.496;2023-01-15T07:55:54;97855.94;;;4.01;100.00
25722;BME280;13578;53.450;15.496;2023-01-15T07:58:55;97850.50;;;4.01;100.00
25722;BME280;13578;53.450;15.496;2023-01-15T08:01:55;97849.66;;;4.00;100.00
25722;BME280;13578;53.450;15.496;2023-01-15T08:04:56;97842.06;;;3.94;100.00
25722;BME280;13578;53.450;15.496;2023-01-15T08:07:57;97837.66;;;3.83;100.00
25722;BME280;13578;53.450;15.496;2023-01-15T08:11:01;97850.22;;;3.84;100.00
25722;BME280;13578;53.450;15.496;2023-01-15T08:14:20;97844.53;;;3.87;100.00
25722;BME280;13578;53.450;15.496;2023-01-15T08:17:44;97846.50;;;3.85;100.00
25722;BME280;13578;53.450;15.496;2023-01-15T08:20:45;97844.06;;;3.82;100.00
25722;BME280;13578;53.450;15.496;2023-01-15T08:23:46;97832.50;;;3.90;100.00
25722;BME280;13578;53.450;15.496;2023-01-15T08:26:46;97825.66;;;3.86;100.00
25722;BME280;13578;53.450;15.496;2023-01-15T08:29:47;97823.22;;;3.92;100.00
25722;BME280;13578;53.450;15.496;2023-01-15T08:32:48;97829.50;;;3.93;100.00
25722;BME280;13578;53.450;15.496;2023-01-15T08:35:49;97828.25;;;3.87;100.00
25722;BME280;13578;53.450;15.496;2023-01-15T08:38:49;97829.78;;;4.00;100.00
25722;BME280;13578;53.450;15.496;2023-01-15T08:41:50;97841.63;;;3.98;100.00
25722;BME280;13578;53.450;15.496;2023-01-15T08:44:50;97854.53;;;3.96;100.00
25722;BME280;13578;53.450;15.496;2023-01-15T08:47:54;97860.50;;;3.90;100.00
25722;BME280;13578;53.450;15.496;2023-01-15T08:50:56;97863.66;;;3.95;100.00
25722;BME280;13578;53.450;15.496;2023-01-15T08:53:57;97854.94;;;3.92;100.00
25722;BME280;13578;53.450;15.496;2023-01-15T08:56:58;97857.66;;;4.02;100.00
25722;BME280;13578;53.450;15.496;2023-01-15T08:59:59;97852.94;;;4.04;100.00
25722;BME280;13578;53.450;15.496;2023-01-15T09:03:00;97861.47;;;4.19;100.00
25722;BME280;13578;53.450;15.496;2023-01-15T09:06:01;97863.34;;;4.18;100.00
25722;BME280;13578;53.450;15.496;2023-01-15T09:09:02;97866.75;;;4.20;100.00
25722;BME280;13578;53.450;15.496;2023-01-15T09:12:02;97868.19;;;4.24;100.00
25722;BME280;13578;53.450;15.496;2023-01-15T09:15:03;97857.94;;;4.18;100.00
25722;BME280;13578;53.450;15.496;2023-01-15T09:18:04;97861.19;;;4.22;100.00
25722;BME280;13578;53.450;15.496;2023-01-15T09:21:05;97868.19;;;4.24;100.00
25722;BME280;13578;53.450;15.496;2023-01-15T09:24:06;97868.63;;;4.20;100.00
25722;BME280;13578;53.450;15.496;2023-01-15T09:27:11;97866.34;;;4.15;100.00
25722;BME280;13578;53.450;15.496;2023-01-15T09:30:17;97864.59;;;4.24;100.00
25722;BME280;13578;53.450;15.496;2023-01-15T09:33:18;97879.50;;;4.20;100.00
25722;BME280;13578;53.450;15.496;2023-01-15T09:36:25;97876.34;;;4.15;100.00
25722;BME280;13578;53.450;15.496;2023-01-15T09:39:27;97879.34;;;4.11;100.00
25722;BME280;13578;53.450;15.496;2023-01-15T09:42:42;97874.66;;;4.13;100.00
25722;BME280;13578;53.450;15.496;2023-01-15T09:49:34;97867.03;;;4.27;100.00
25722;BME280;13578;53.450;15.496;2023-01-15T09:55:51;97873.03;;;4.31;100.00
25722;BME280;13578;53.450;15.496;2023-01-15T09:58:53;97871.50;;;4.18;100.00
25722;BME280;13578;53.450;15.496;2023-01-15T10:01:55;97856.22;;;4.17;100.00
25722;BME280;13578;53.450;15.496;2023-01-15T10:05:06;97860.31;;;4.21;100.00
25722;BME280;13578;53.450;15.496;2023-01-15T10:08:12;97876.06;;;4.18;100.00
25722;BME280;13578;53.450;15.496;2023-01-15T10:14:34;97871.94;;;4.13;100.00
25722;BME280;13578;53.450;15.496;2023-01-15T10:17:43;97882.19;;;4.29;100.00
25722;BME280;13578;53.450;15.496;2023-01-15T10:20:48;97893.19;;;4.38;100.00
25722;BME280;13578;53.450;15.496;2023-01-15T10:24:04;97889.88;;;4.44;100.00
25722;BME280;13578;53.450;15.496;2023-01-15T10:27:20;97877.16;;;4.35;100.00
25722;BME280;13578;53.450;15.496;2023-01-15T10:30:42;97873.16;;;4.39;100.00
25722;BME280;13578;53.450;15.496;2023-01-15T10:41:19;97872.03;;;4.32;100.00
25722;BME280;13578;53.450;15.496;2023-01-15T10:47:43;97870.72;;;4.36;100.00
25722;BME280;13578;53.450;15.496;2023-01-15T10:50:47;97869.16;;;4.43;100.00
25722;BME280;13578;53.450;15.496;2023-01-15T11:00:53;97892.88;;;4.41;100.00
25722;BME280;13578;53.450;15.496;2023-01-15T11:03:56;97883.13;;;4.48;100.00
25722;BME280;13578;53.450;15.496;2023-01-15T11:06:56;97882.13;;;4.49;100.00
25722;BME280;13578;53.450;15.496;2023-01-15T11:10:03;97876.66;;;4.59;100.00
25722;BME280;13578;53.450;15.496;2023-01-15T11:13:23;97889.38;;;4.68;100.00
25722;BME280;13578;53.450;15.496;2023-01-15T11:16:42;97893.56;;;4.63;100.00
25722;BME280;13578;53.450;15.496;2023-01-15T11:20:09;97901.81;;;4.71;100.00
25722;BME280;13578;53.450;15.496;2023-01-15T11:23:14;97910.69;;;4.73;100.00
25722;BME280;13578;53.450;15.496;2023-01-15T11:26:18;97896.94;;;4.84;100.00
25722;BME280;13578;53.450;15.496;2023-01-15T11:29:38;97897.25;;;4.71;100.00
25722;BME280;13578;53.450;15.496;2023-01-15T11:32:38;97886.50;;;4.80;100.00
25722;BME280;13578;53.450;15.496;2023-01-15T11:35:49;97878.63;;;4.76;100.00
25722;BME280;13578;53.450;15.496;2023-01-15T11:38:50;97881.19;;;4.78;100.00
25722;BME280;13578;53.450;15.496;2023-01-15T11:41:57;97874.63;;;4.81;100.00
25722;BME280;13578;53.450;15.496;2023-01-15T11:45:19;97869.31;;;4.79;100.00
25722;BME280;13578;53.450;15.496;2023-01-15T11:48:46;97873.16;;;4.86;100.00
25722;BME280;13578;53.450;15.496;2023-01-15T11:52:12;97876.19;;;4.83;100.00
25722;BME280;13578;53.450;15.496;2023-01-15T11:55:18;97896.72;;;4.96;100.00
25722;BME280;13578;53.450;15.496;2023-01-15T11:58:20;97895.72;;;4.97;100.00
25722;BME280;13578;53.450;15.496;2023-01-15T12:01:51;97891.00;;;4.99;100.00
25722;BME280;13578;53.450;15.496;2023-01-15T12:04:59;97886.69;;;4.96;100.00
25722;BME280;13578;53.450;15.496;2023-01-15T12:08:02;97887.00;;;4.93;100.00
25722;BME280;13578;53.450;15.496;2023-01-15T12:17:58;97888.97;;;5.01;100.00
25722;BME280;13578;53.450;15.496;2023-01-15T12:31:04;97892.19;;;5.14;100.00
25722;BME280;13578;53.450;15.496;2023-01-15T12:37:25;97879.38;;;5.06;100.00
25722;BME280;13578;53.450;15.496;2023-01-15T12:40:43;97874.19;;;5.13;100.00
25722;BME280;13578;53.450;15.496;2023-01-15T12:43:51;97867.59;;;5.16;100.00
25722;BME280;13578;53.450;15.496;2023-01-15T12:47:16;97879.38;;;5.06;100.00
25722;BME280;13578;53.450;15.496;2023-01-15T12:50:41;97876.75;;;5.15;100.00
25722;BME280;13578;53.450;15.496;2023-01-15T12:53:54;97884.91;;;5.15;100.00
25722;BME280;13578;53.450;15.496;2023-01-15T12:57:04;97887.63;;;5.15;100.00
25722;BME280;13578;53.450;15.496;2023-01-15T13:03:28;97892.31;;;5.22;100.00
25722;BME280;13578;53.450;15.496;2023-01-15T13:06:34;97889.34;;;5.16;100.00
25722;BME280;13578;53.450;15.496;2023-01-15T13:12:37;97902.34;;;5.22;100.00
25722;BME280;13578;53.450;15.496;2023-01-15T13:15:52;97909.38;;;5.15;100.00
25722;BME280;13578;53.450;15.496;2023-01-15T13:22:04;97912.66;;;5.18;100.00
25722;BME280;13578;53.450;15.496;2023-01-15T13:25:25;97904.63;;;5.27;100.00
25722;BME280;13578;53.450;15.496;2023-01-15T13:35:11;97901.47;;;5.21;100.00
25722;BME280;13578;53.450;15.496;2023-01-15T13:38:18;97888.78;;;5.12;100.00
25722;BME280;13578;53.450;15.496;2023-01-15T13:41:23;97898.13;;;5.09;100.00
25722;BME280;13578;53.450;15.496;2023-01-15T13:44:48;97896.25;;;5.10;100.00
25722;BME280;13578;53.450;15.496;2023-01-15T13:47:54;97901.28;;;5.05;100.00
25722;BME280;13578;53.450;15.496;2023-01-15T13:50:57;97893.72;;;4.99;100.00
25722;BME280;13578;53.450;15.496;2023-01-15T13:53:59;97891.41;;;5.04;100.00
25722;BME280;13578;53.450;15.496;2023-01-15T13:57:23;97897.91;;;5.21;100.00
25722;BME280;13578;53.450;15.496;2023-01-15T14:00:30;97893.63;;;5.18;100.00
25722;BME280;13578;53.450;15.496;2023-01-15T14:03:34;97895.34;;;5.19;100.00
25722;BME280;13578;53.450;15.496;2023-01-15T14:09:42;97893.78;;;5.17;100.00
25722;BME280;13578;53.450;15.496;2023-01-15T14:13:04;97903.34;;;5.21;100.00
25722;BME280;13578;53.450;15.496;2023-01-15T14:16:26;97906.22;;;5.19;100.00
25722;BME280;13578;53.450;15.496;2023-01-15T14:26:35;97925.50;;;4.88;100.00
25722;BME280;13578;53.450;15.496;2023-01-15T14:29:49;97914.84;;;4.77;100.00
25722;BME280;13578;53.450;15.496;2023-01-15T14:36:17;97923.16;;;4.56;100.00
25722;BME280;13578;53.450;15.496;2023-01-15T14:39:41;97936.16;;;4.62;100.00
25722;BME280;13578;53.450;15.496;2023-01-15T14:42:49;97934.88;;;4.56;100.00
25722;BME280;13578;53.450;15.496;2023-01-15T14:46:14;97941.31;;;4.55;100.00
25722;BME280;13578;53.450;15.496;2023-01-15T14:49:41;97935.63;;;4.49;100.00
25722;BME280;13578;53.450;15.496;2023-01-15T14:52:43;97938.50;;;4.47;100.00
25722;BME280;13578;53.450;15.496;2023-01-15T15:02:21;97955.78;;;4.56;100.00
25722;BME280;13578;53.450;15.496;2023-01-15T15:05:23;97963.03;;;4.55;100.00
25722;BME280;13578;53.450;15.496;2023-01-15T15:08:29;97959.63;;;4.34;100.00
25722;BME280;13578;53.450;15.496;2023-01-15T15:11:45;97963.38;;;4.33;100.00
25722;BME280;13578;53.450;15.496;2023-01-15T15:15:17;97955.66;;;4.38;100.00
25722;BME280;13578;53.450;15.496;2023-01-15T15:18:40;97953.22;;;4.54;100.00
25722;BME280;13578;53.450;15.496;2023-01-15T15:21:44;97952.34;;;4.44;100.00
25722;BME280;13578;53.450;15.496;2023-01-15T15:24:49;97962.50;;;4.42;100.00
25722;BME280;13578;53.450;15.496;2023-01-15T15:28:22;97953.22;;;4.35;100.00
25722;BME280;13578;53.450;15.496;2023-01-15T15:31:23;97956.38;;;4.40;100.00
25722;BME280;13578;53.450;15.496;2023-01-15T15:34:35;97969.38;;;4.46;100.00
25722;BME280;13578;53.450;15.496;2023-01-15T15:37:43;97985.22;;;4.31;100.00
25722;BME280;13578;53.450;15.496;2023-01-15T15:40:50;97968.66;;;4.24;100.00
25722;BME280;13578;53.450;15.496;2023-01-15T15:43:55;97974.22;;;4.23;100.00
25722;BME280;13578;53.450;15.496;2023-01-15T15:47:23;97967.09;;;4.22;100.00
25722;BME280;13578;53.450;15.496;2023-01-15T15:50:46;97966.53;;;4.18;100.00
25722;BME280;13578;53.450;15.496;2023-01-15T15:53:47;97964.50;;;4.20;100.00
25722;BME280;13578;53.450;15.496;2023-01-15T15:56:56;97964.09;;;4.15;100.00
25722;BME280;13578;53.450;15.496;2023-01-15T15:59:59;97958.22;;;4.10;100.00
25722;BME280;13578;53.450;15.496;2023-01-15T16:03:05;97962.50;;;4.03;100.00
25722;BME280;13578;53.450;15.496;2023-01-15T16:06:16;97966.78;;;3.95;100.00
25722;BME280;13578;53.450;15.496;2023-01-15T16:09:22;97968.78;;;3.93;100.00
25722;BME280;13578;53.450;15.496;2023-01-15T16:12:23;97967.38;;;3.99;100.00
25722;BME280;13578;53.450;15.496;2023-01-15T16:15:27;97973.63;;;4.00;100.00
25722;BME280;13578;53.450;15.496;2023-01-15T16:18:37;97952.81;;;4.10;100.00
25722;BME280;13578;53.450;15.496;2023-01-15T16:21:43;97943.94;;;3.98;100.00
25722;BME280;13578;53.450;15.496;2023-01-15T16:24:55;97961.22;;;3.97;100.00
25722;BME280;13578;53.450;15.496;2023-01-15T16:27:57;97955.63;;;3.89;100.00
25722;BME280;13578;53.450;15.496;2023-01-15T16:31:00;97960.22;;;3.98;100.00
25722;BME280;13578;53.450;15.496;2023-01-15T16:34:04;97951.03;;;3.89;100.00
25722;BME280;13578;53.450;15.496;2023-01-15T16:37:22;97960.78;;;3.92;100.00
25722;BME280;13578;53.450;15.496;2023-01-15T16:40:33;97948.22;;;3.81;100.00
25722;BME280;13578;53.450;15.496;2023-01-15T16:43:50;97942.63;;;3.83;100.00
25722;BME280;13578;53.450;15.496;2023-01-15T16:46:53;97944.47;;;3.82;100.00
25722;BME280;13578;53.450;15.496;2023-01-15T16:53:39;97950.75;;;3.73;100.00
25722;BME280;13578;53.450;15.496;2023-01-15T17:02:45;97940.91;;;3.81;100.00
25722;BME280;13578;53.450;15.496;2023-01-15T17:05:48;97937.47;;;3.70;100.00
25722;BME280;13578;53.450;15.496;2023-01-15T17:08:51;97934.91;;;3.68;100.00
25722;BME280;13578;53.450;15.496;2023-01-15T17:11:53;97930.06;;;3.72;100.00
25722;BME280;13578;53.450;15.496;2023-01-15T17:14:54;97943.31;;;3.75;100.00
25722;BME280;13578;53.450;15.496;2023-01-15T17:17:57;97942.88;;;3.70;100.00
25722;BME280;13578;53.450;15.496;2023-01-15T17:20:58;97937.19;;;3.73;100.00
25722;BME280;13578;53.450;15.496;2023-01-15T17:24:00;97955.88;;;3.76;100.00
25722;BME280;13578;53.450;15.496;2023-01-15T17:27:03;97943.88;;;3.69;100.00
25722;BME280;13578;53.450;15.496;2023-01-15T17:30:04;97941.91;;;3.71;100.00
25722;BME280;13578;53.450;15.496;2023-01-15T17:33:06;97969.28;;;3.68;100.00
25722;BME280;13578;53.450;15.496;2023-01-15T17:36:08;97974.72;;;3.68;100.00
25722;BME280;13578;53.450;15.496;2023-01-15T17:39:09;97969.19;;;3.69;100.00
25722;BME280;13578;53.450;15.496;2023-01-15T17:42:14;97991.56;;;3.71;100.00
25722;BME280;13578;53.450;15.496;2023-01-15T17:45:26;97986.44;;;3.58;100.00
25722;BME280;13578;53.450;15.496;2023-01-15T17:48:27;97992.53;;;3.50;100.00
25722;BME280;13578;53.450;15.496;2023-01-15T17:51:28;97983.81;;;3.57;100.00
25722;BME280;13578;53.450;15.496;2023-01-15T17:54:29;97982.44;;;3.62;100.00
25722;BME280;13578;53.450;15.496;2023-01-15T17:57:48;97989.31;;;3.67;100.00
25722;BME280;13578;53.450;15.496;2023-01-15T18:01:15;97991.44;;;3.63;100.00